Time;durP1;ratioP1;P1;durP2;ratioP2;P2;SDS_P1;SDS_P2;PMS_P1;PMS_P2;Temp;Humidity;BMP_temperature;BMP_pressure;BME280_temperature;BME280_humidity;BME280_pressure;Samples;Min_cycle;Max_cycle;Signal;HPM_P1;HPM_P2
2022/09/25 00:01:20;;;;;;;7.40;3.90;;;8.80;99.90;;;;;;5155110;27;20039;-29
2022/09/25 00:03:46;;;;;;;9.35;3.60;;;8.80;99.90;;;;;;5141505;27;20139;-29
2022/09/25 00:06:20;;;;;;;6.45;4.45;;;8.70;99.90;;;;;;5134374;27;20039;-30
2022/09/25 00:08:48;;;;;;;5.20;3.72;;;8.70;99.90;;;;;;5134685;27;20043;-30
2022/09/25 00:11:17;;;;;;;10.52;4.50;;;8.60;99.90;;;;;;5134764;27;20125;-30
2022/09/25 00:13:44;;;;;;;9.75;3.75;;;8.60;99.90;;;;;;5143053;27;20070;-31
2022/09/25 00:16:13;;;;;;;8.80;4.80;;;8.60;99.90;;;;;;5129925;27;20360;-29
2022/09/25 00:21:28;;;;;;;11.70;4.35;;;8.50;99.90;;;;;;5147357;27;20510;-30
2022/09/25 00:23:54;;;;;;;6.57;4.40;;;8.50;99.90;;;;;;5134173;27;20100;-31
2022/09/25 00:26:19;;;;;;;8.80;4.32;;;8.50;99.90;;;;;;5128997;27;20389;-29
2022/09/25 00:28:45;;;;;;;11.77;4.35;;;8.40;99.90;;;;;;5134150;27;20088;-29
2022/09/25 00:31:23;;;;;;;8.27;4.82;;;8.40;99.90;;;;;;5134483;27;20037;-29
2022/09/25 00:34:02;;;;;;;9.05;4.30;;;8.50;99.90;;;;;;5121317;27;20055;-29
2022/09/25 00:36:29;;;;;;;9.23;4.28;;;8.50;99.90;;;;;;5107479;27;20038;-29
2022/09/25 00:38:55;;;;;;;7.30;4.13;;;8.50;99.90;;;;;;5133846;27;20035;-29
2022/09/25 00:41:24;;;;;;;6.30;4.50;;;8.50;99.90;;;;;;5116728;27;20038;-31
2022/09/25 00:43:56;;;;;;;8.30;4.15;;;8.50;99.90;;;;;;5134112;27;20403;-29
2022/09/25 00:46:30;;;;;;;7.72;4.03;;;8.50;99.90;;;;;;5131768;27;20039;-30
2022/09/25 00:49:04;;;;;;;8.13;4.47;;;8.50;99.90;;;;;;5134184;27;20043;-29
2022/09/25 00:51:49;;;;;;;4.55;3.92;;;8.40;99.90;;;;;;5133843;27;20092;-30
2022/09/25 00:54:41;;;;;;;12.35;4.32;;;8.40;99.90;;;;;;5133662;27;20104;-30
2022/09/25 00:57:12;;;;;;;7.82;4.32;;;8.30;99.90;;;;;;5122290;27;20082;-29
2022/09/25 00:59:43;;;;;;;8.82;4.47;;;8.30;99.90;;;;;;5133693;27;20027;-30
2022/09/25 01:02:12;;;;;;;8.23;4.75;;;8.30;99.90;;;;;;5133752;27;20062;-29
2022/09/25 01:04:41;;;;;;;10.40;4.93;;;8.30;99.90;;;;;;5133598;27;20126;-29
2022/09/25 01:07:08;;;;;;;7.90;4.22;;;8.30;99.90;;;;;;5150006;27;20042;-28
2022/09/25 01:09:35;;;;;;;6.95;3.88;;;8.30;99.90;;;;;;5133528;27;20548;-29
2022/09/25 01:12:01;;;;;;;8.40;4.15;;;8.30;99.90;;;;;;5133053;27;20076;-31
2022/09/25 01:14:27;;;;;;;6.95;4.13;;;8.20;99.90;;;;;;5133246;27;20036;-29
2022/09/25 01:17:04;;;;;;;6.97;4.13;;;8.20;99.90;;;;;;5133405;27;20032;-29
2022/09/25 01:20:14;;;;;;;7.15;4.13;;;8.20;99.90;;;;;;5133296;27;20073;-30
2022/09/25 01:23:01;;;;;;;9.38;4.50;;;8.10;99.90;;;;;;5017752;28;20053;-31
2022/09/25 01:25:29;;;;;;;7.20;4.60;;;8.10;99.90;;;;;;5034002;28;20075;-30
2022/09/25 01:28:07;;;;;;;10.30;4.25;;;8.10;99.90;;;;;;5081233;27;20054;-30
2022/09/25 01:30:40;;;;;;;8.43;3.97;;;8.00;99.90;;;;;;5132842;27;20080;-30
2022/09/25 01:33:26;;;;;;;10.32;4.28;;;8.00;99.90;;;;;;5132490;27;20496;-29
2022/09/25 01:36:01;;;;;;;7.47;3.90;;;8.00;99.90;;;;;;5132928;27;20039;-30
2022/09/25 01:38:38;;;;;;;5.90;4.15;;;7.90;99.90;;;;;;5131755;27;20035;-30
2022/09/25 01:41:15;;;;;;;7.15;4.40;;;7.90;99.90;;;;;;5132847;27;20039;-28
2022/09/25 01:43:57;;;;;;;7.05;4.22;;;7.90;99.90;;;;;;5115578;27;20035;-29
2022/09/25 01:46:45;;;;;;;9.65;4.43;;;7.80;99.90;;;;;;5139544;27;20111;-30
2022/09/25 01:49:19;;;;;;;4.40;3.70;;;7.80;99.90;;;;;;5132482;27;20035;-29
2022/09/25 01:51:51;;;;;;;6.30;4.40;;;7.80;99.90;;;;;;5132892;27;20119;-28
2022/09/25 01:54:23;;;;;;;8.20;4.25;;;7.80;99.90;;;;;;5131022;27;20035;-28
2022/09/25 01:56:52;;;;;;;7.68;4.68;;;7.70;99.90;;;;;;5139609;27;20396;-31
2022/09/25 01:59:31;;;;;;;5.07;3.90;;;7.70;99.90;;;;;;5132558;27;20035;-30
2022/09/25 02:02:00;;;;;;;6.05;3.45;;;7.80;99.90;;;;;;5132349;27;20484;-31
2022/09/25 02:05:14;;;;;;;6.43;4.05;;;7.70;99.90;;;;;;5132494;27;20042;-29
2022/09/25 02:07:49;;;;;;;9.75;5.03;;;7.70;99.90;;;;;;5123830;27;20040;-29
2022/09/25 02:10:31;;;;;;;8.77;4.50;;;7.70;99.90;;;;;;5147355;27;20038;-29
2022/09/25 02:13:07;;;;;;;9.48;4.80;;;7.70;99.90;;;;;;5142125;27;20069;-29
2022/09/25 02:15:39;;;;;;;6.40;4.03;;;7.70;99.90;;;;;;5131921;27;20050;-29
2022/09/25 02:21:28;;;;;;;8.40;4.75;;;7.70;99.90;;;;;;5113285;27;20126;-29
2022/09/25 02:24:10;;;;;;;7.05;4.05;;;7.70;99.90;;;;;;5132252;27;20465;-29
2022/09/25 02:26:37;;;;;;;7.80;4.10;;;7.70;99.90;;;;;;5114894;28;20440;-30
2022/09/25 02:29:04;;;;;;;8.65;4.30;;;7.60;99.90;;;;;;5148171;27;20042;-29
2022/09/25 02:31:35;;;;;;;5.55;3.70;;;7.60;99.90;;;;;;5133979;27;20035;-30
2022/09/25 02:34:02;;;;;;;10.88;4.80;;;7.60;99.90;;;;;;5131578;27;20035;-30
2022/09/25 02:36:28;;;;;;;7.28;4.10;;;7.60;99.90;;;;;;5140261;27;20047;-30
2022/09/25 02:38:55;;;;;;;7.13;4.53;;;7.50;99.90;;;;;;5132008;28;20042;-30
2022/09/25 02:41:24;;;;;;;7.85;3.97;;;7.50;99.90;;;;;;5131705;28;20480;-29
2022/09/25 02:43:56;;;;;;;5.70;3.60;;;7.60;99.90;;;;;;5131952;28;20095;-29
2022/09/25 02:46:48;;;;;;;7.15;3.95;;;7.50;99.90;;;;;;5131920;28;20122;-29
2022/09/25 02:49:24;;;;;;;8.85;4.00;;;7.50;99.90;;;;;;5131490;28;20043;-31
2022/09/25 02:51:50;;;;;;;6.95;4.28;;;7.60;99.90;;;;;;5136030;27;20396;-30
2022/09/25 02:54:22;;;;;;;5.20;3.72;;;7.50;99.90;;;;;;5152715;27;20038;-30
2022/09/25 02:57:13;;;;;;;11.95;4.47;;;7.50;99.90;;;;;;5135913;27;20039;-28
2022/09/25 02:59:50;;;;;;;7.15;4.15;;;7.50;99.90;;;;;;5135902;27;20039;-30
2022/09/25 03:02:17;;;;;;;8.32;4.40;;;7.50;99.90;;;;;;5135569;27;20035;-29
2022/09/25 03:04:47;;;;;;;6.50;3.90;;;7.40;99.90;;;;;;5135830;27;20503;-29
2022/09/25 03:07:13;;;;;;;5.65;4.03;;;7.40;99.90;;;;;;5130973;27;20043;-29
2022/09/25 03:09:42;;;;;;;6.57;3.70;;;7.40;99.90;;;;;;5123354;27;20066;-29
2022/09/25 03:12:08;;;;;;;7.60;4.10;;;7.40;99.90;;;;;;5153119;27;20046;-29
2022/09/25 03:14:34;;;;;;;8.43;4.25;;;7.40;99.90;;;;;;5135349;27;20120;-29
2022/09/25 03:17:03;;;;;;;6.20;3.95;;;7.40;99.90;;;;;;5135185;27;20070;-28
2022/09/25 03:19:29;;;;;;;8.55;4.13;;;7.40;99.90;;;;;;5128238;27;20500;-30
2022/09/25 03:21:55;;;;;;;7.15;3.72;;;7.40;99.90;;;;;;5128657;27;20503;-28
2022/09/25 03:24:21;;;;;;;6.85;3.75;;;7.40;99.90;;;;;;5135351;27;20073;-29
2022/09/25 03:26:47;;;;;;;8.23;3.90;;;7.30;99.90;;;;;;5135506;27;20035;-30
2022/09/25 03:29:16;;;;;;;8.02;3.70;;;7.30;99.90;;;;;;5135268;27;20038;-28
2022/09/25 03:31:44;;;;;;;6.55;3.40;;;7.30;99.90;;;;;;5135524;27;20443;-29
2022/09/25 03:34:12;;;;;;;7.43;4.13;;;7.30;99.90;;;;;;5132934;27;20051;-29
2022/09/25 03:36:38;;;;;;;8.25;3.60;;;7.30;99.90;;;;;;5105668;27;20567;-28
2022/09/25 03:39:04;;;;;;;8.32;4.40;;;7.30;99.90;;;;;;5139424;27;20043;-30
2022/09/25 03:41:32;;;;;;;7.15;4.28;;;7.20;99.90;;;;;;5133744;27;20480;-30
2022/09/25 03:43:59;;;;;;;7.63;3.75;;;7.20;99.90;;;;;;5129018;27;20035;-29
2022/09/25 03:46:28;;;;;;;8.80;4.28;;;7.20;99.90;;;;;;5112810;27;20063;-29
2022/09/25 03:48:54;;;;;;;6.32;3.80;;;7.20;99.90;;;;;;5117620;27;20050;-30
2022/09/25 03:51:22;;;;;;;8.52;3.80;;;7.20;99.90;;;;;;5149954;27;20043;-29
2022/09/25 03:53:49;;;;;;;6.80;4.30;;;7.20;99.90;;;;;;5134601;27;20039;-28
2022/09/25 03:56:22;;;;;;;12.10;4.75;;;7.20;99.90;;;;;;5134606;27;20039;-30
2022/09/25 03:58:49;;;;;;;7.40;3.83;;;7.20;99.90;;;;;;5134926;27;20049;-28
2022/09/25 04:01:18;;;;;;;9.25;3.85;;;7.20;99.90;;;;;;5116590;27;20035;-31
2022/09/25 04:03:45;;;;;;;6.00;3.90;;;7.20;99.90;;;;;;5134656;27;20035;-31
2022/09/25 04:06:13;;;;;;;8.32;4.22;;;7.10;99.90;;;;;;5134813;27;20039;-30
2022/09/25 04:08:39;;;;;;;7.28;4.15;;;7.10;99.90;;;;;;5134916;27;20035;-28
2022/09/25 04:11:05;;;;;;;7.05;3.75;;;7.10;99.90;;;;;;5135232;27;20483;-30
2022/09/25 04:13:36;;;;;;;7.05;4.20;;;7.10;99.90;;;;;;5134034;27;20171;-37
2022/09/25 04:16:04;;;;;;;9.07;4.32;;;7.10;99.90;;;;;;5134623;27;20438;-31
2022/09/25 04:18:30;;;;;;;5.72;3.67;;;7.00;99.90;;;;;;5134564;27;20035;-29
2022/09/25 04:21:02;;;;;;;8.95;3.67;;;7.00;99.90;;;;;;5149766;27;20072;-29
2022/09/25 04:23:27;;;;;;;5.22;3.45;;;7.00;99.90;;;;;;5139314;27;20300;-29
2022/09/25 04:25:53;;;;;;;9.93;4.45;;;7.00;99.90;;;;;;5134213;27;20045;-31
2022/09/25 04:28:20;;;;;;;7.68;4.05;;;7.00;99.90;;;;;;5134386;27;20391;-28
2022/09/25 04:30:46;;;;;;;9.05;4.22;;;7.00;99.90;;;;;;5139260;27;20087;-31
2022/09/25 04:35:55;;;;;;;;;;;7.10;99.90;;;;;;5135393;27;20051;-30
2022/09/25 04:38:21;;;;;;;7.43;4.00;;;7.10;99.90;;;;;;5143592;27;19915;-30
2022/09/25 04:40:47;;;;;;;6.60;4.10;;;7.10;99.90;;;;;;5133914;27;20039;-28
2022/09/25 04:43:13;;;;;;;11.35;5.00;;;7.20;99.90;;;;;;5133844;27;20049;-30
2022/09/25 04:45:39;;;;;;;7.32;4.07;;;7.20;99.90;;;;;;5133601;27;20038;-29
2022/09/25 04:48:05;;;;;;;6.35;3.70;;;7.20;99.90;;;;;;5134076;27;20072;-29
2022/09/25 04:50:32;;;;;;;8.65;4.47;;;7.20;99.90;;;;;;5133700;27;20045;-30
2022/09/25 04:52:58;;;;;;;11.38;4.30;;;7.20;99.90;;;;;;5133599;27;20106;-30
2022/09/25 04:55:26;;;;;;;9.38;4.18;;;7.20;99.90;;;;;;5133543;27;20074;-29
2022/09/25 04:57:57;;;;;;;5.13;3.60;;;7.20;99.90;;;;;;5133494;27;20031;-29
2022/09/25 05:00:25;;;;;;;7.40;3.90;;;7.20;99.90;;;;;;5132601;27;20050;-30
2022/09/25 05:02:51;;;;;;;5.53;3.67;;;7.10;99.90;;;;;;5133174;27;20073;-29
2022/09/25 05:05:17;;;;;;;7.82;3.40;;;7.10;99.90;;;;;;5133147;27;20172;-30
2022/09/25 05:07:57;;;;;;;5.72;3.22;;;7.10;99.90;;;;;;5133644;27;20506;-30
2022/09/25 05:10:26;;;;;;;9.23;4.05;;;7.00;99.90;;;;;;5133871;27;20520;-30
2022/09/25 05:13:02;;;;;;;11.90;4.38;;;7.00;99.90;;;;;;5132733;27;20042;-29
2022/09/25 05:15:31;;;;;;;10.57;4.30;;;7.10;99.90;;;;;;5152013;27;20046;-30
2022/09/25 05:18:03;;;;;;;7.85;4.25;;;7.10;99.90;;;;;;5142067;27;20473;-31
2022/09/25 05:20:29;;;;;;;7.78;4.22;;;7.10;99.90;;;;;;5133286;27;20114;-30
2022/09/25 05:22:58;;;;;;;10.32;3.95;;;7.10;99.90;;;;;;5132625;27;20523;-31
2022/09/25 05:25:25;;;;;;;6.65;3.95;;;7.10;99.90;;;;;;5133033;27;20483;-29
2022/09/25 05:27:57;;;;;;;7.07;3.58;;;7.00;99.90;;;;;;5131203;27;20110;-29
2022/09/25 05:30:33;;;;;;;7.45;3.53;;;7.00;99.90;;;;;;5113810;28;20043;-31
2022/09/25 05:32:59;;;;;;;5.97;3.22;;;7.00;99.90;;;;;;5118724;27;20163;-30
2022/09/25 05:35:28;;;;;;;5.00;3.70;;;6.90;99.90;;;;;;5132891;27;20565;-29
2022/09/25 05:37:54;;;;;;;7.47;3.53;;;7.00;99.90;;;;;;5132942;27;20039;-29
2022/09/25 05:40:20;;;;;;;8.07;4.18;;;6.90;99.90;;;;;;5132754;27;20027;-29
2022/09/25 05:42:47;;;;;;;9.88;4.18;;;6.90;99.90;;;;;;5132719;27;20100;-30
2022/09/25 05:45:14;;;;;;;6.20;3.60;;;6.90;99.90;;;;;;5115622;27;20496;-29
2022/09/25 05:47:40;;;;;;;7.68;4.30;;;6.90;99.90;;;;;;5132503;27;20039;-31
2022/09/25 05:50:08;;;;;;;5.85;3.38;;;6.90;99.90;;;;;;5115358;27;20070;-29
2022/09/25 05:52:35;;;;;;;7.20;3.83;;;6.90;99.90;;;;;;5135952;27;20095;-31
2022/09/25 05:55:02;;;;;;;6.95;4.03;;;6.90;99.90;;;;;;5137390;27;20042;-28
2022/09/25 05:57:35;;;;;;;7.35;3.75;;;6.90;99.90;;;;;;5131596;27;20031;-29
2022/09/25 06:00:04;;;;;;;7.55;4.15;;;6.90;99.90;;;;;;5115535;27;20484;-30
2022/09/25 06:02:30;;;;;;;4.80;3.45;;;6.90;99.90;;;;;;5132141;27;20031;-30
2022/09/25 06:04:55;;;;;;;7.68;4.75;;;7.00;99.90;;;;;;5131950;27;20038;-30
2022/09/25 06:07:21;;;;;;;7.85;4.32;;;7.00;99.90;;;;;;5132808;27;20498;-31
2022/09/25 06:09:47;;;;;;;9.48;3.90;;;7.00;99.90;;;;;;5147852;27;20096;-28
2022/09/25 06:12:13;;;;;;;8.25;3.60;;;7.00;99.90;;;;;;5117852;27;20122;-29
2022/09/25 06:14:39;;;;;;;6.82;4.03;;;7.10;99.90;;;;;;5132071;27;20035;-30
2022/09/25 06:17:07;;;;;;;10.07;4.03;;;7.10;99.90;;;;;;5115017;27;20030;-30
2022/09/25 06:19:34;;;;;;;11.45;5.22;;;7.20;99.90;;;;;;5130523;27;20099;-31
2022/09/25 06:22:00;;;;;;;9.98;4.97;;;7.20;99.90;;;;;;5132273;27;20104;-30
2022/09/25 06:24:26;;;;;;;10.32;6.10;;;7.20;99.90;;;;;;5123352;27;20075;-29
2022/09/25 06:26:52;;;;;;;10.02;6.68;;;7.30;99.90;;;;;;5111638;28;20369;-29
2022/09/25 06:29:18;;;;;;;7.38;6.57;;;7.40;99.90;;;;;;5131856;27;20031;-30
2022/09/25 06:31:44;;;;;;;11.70;6.28;;;7.40;99.90;;;;;;5135627;27;20064;-30
2022/09/25 06:34:11;;;;;;;8.35;5.53;;;7.40;99.90;;;;;;5131845;27;20047;-30
2022/09/25 06:36:39;;;;;;;9.05;5.55;;;7.50;99.90;;;;;;5133191;27;20096;-30
2022/09/25 06:39:05;;;;;;;7.63;4.70;;;7.60;99.90;;;;;;5132393;27;20088;-30
2022/09/25 06:41:32;;;;;;;6.75;5.18;;;7.70;99.90;;;;;;5134727;27;20429;-29
2022/09/25 06:43:58;;;;;;;12.73;5.18;;;7.80;99.90;;;;;;5141122;27;20051;-29
2022/09/25 06:46:25;;;;;;;9.40;4.63;;;7.90;99.90;;;;;;5128658;28;20492;-29
2022/09/25 06:48:54;;;;;;;12.15;4.78;;;8.00;99.90;;;;;;5094223;28;20081;-30
2022/09/25 06:51:24;;;;;;;6.55;4.03;;;8.00;99.90;;;;;;5128426;28;20050;-29
2022/09/25 06:53:54;;;;;;;11.70;4.97;;;8.10;99.90;;;;;;5132119;28;20088;-29
2022/09/25 06:56:20;;;;;;;10.57;4.88;;;8.20;99.90;;;;;;5131476;28;20036;-30
2022/09/25 06:58:46;;;;;;;5.07;4.07;;;8.30;99.90;;;;;;5131875;28;20545;-29
2022/09/25 07:01:13;;;;;;;9.23;4.28;;;8.40;99.90;;;;;;5131436;27;20183;-29
2022/09/25 07:03:46;;;;;;;5.30;3.78;;;8.50;99.90;;;;;;5153120;27;20071;-30
2022/09/25 07:06:20;;;;;;;11.33;4.37;;;8.60;99.90;;;;;;5151130;27;20122;-29
2022/09/25 07:08:47;;;;;;;8.48;5.40;;;8.60;99.90;;;;;;5142267;27;20070;-30
2022/09/25 07:11:21;;;;;;;11.77;8.38;;;8.70;99.90;;;;;;5131458;28;20039;-29
2022/09/25 07:13:53;;;;;;;8.85;5.20;;;8.80;99.90;;;;;;5131355;28;20060;-33
2022/09/25 07:16:21;;;;;;;10.93;4.93;;;8.90;99.90;;;;;;5116807;28;20036;-29
2022/09/25 07:18:47;;;;;;;7.70;4.18;;;9.00;99.90;;;;;;5131026;28;20067;-29
2022/09/25 07:21:15;;;;;;;8.43;4.60;;;9.00;99.90;;;;;;5130342;28;20067;-28
2022/09/25 07:23:42;;;;;;;8.10;4.07;;;9.20;99.90;;;;;;5129795;28;20047;-30
2022/09/25 07:26:12;;;;;;;7.97;4.38;;;9.30;99.90;;;;;;5112847;28;20040;-29
2022/09/25 07:28:39;;;;;;;9.07;3.80;;;9.50;99.90;;;;;;5131000;28;20042;-28
2022/09/25 07:31:19;;;;;;;5.30;3.67;;;9.60;99.90;;;;;;5137899;27;20031;-29
2022/09/25 07:33:46;;;;;;;8.52;3.60;;;9.70;99.90;;;;;;5146793;27;20055;-29
2022/09/25 07:36:13;;;;;;;6.13;3.38;;;9.80;99.90;;;;;;5131107;27;20039;-29
2022/09/25 07:38:40;;;;;;;5.88;3.00;;;9.90;99.90;;;;;;5135030;27;20035;-31
2022/09/25 07:41:09;;;;;;;5.35;3.20;;;10.10;99.90;;;;;;5132098;27;20032;-30
2022/09/25 07:43:37;;;;;;;5.85;2.55;;;10.30;99.90;;;;;;5127459;27;20030;-30
2022/09/25 07:46:03;;;;;;;6.20;2.92;;;10.50;99.90;;;;;;5155523;27;20043;-30
2022/09/25 07:48:30;;;;;;;7.40;3.05;;;10.70;99.90;;;;;;5146400;27;20035;-29
2022/09/25 07:51:04;;;;;;;7.90;2.67;;;10.90;99.90;;;;;;5148831;27;20506;-31
2022/09/25 07:53:30;;;;;;;7.97;2.97;;;11.20;99.90;;;;;;5141211;27;20385;-30
2022/09/25 07:55:58;;;;;;;5.72;2.67;;;11.60;99.90;;;;;;5133493;27;20467;-29
2022/09/25 07:58:25;;;;;;;6.20;2.45;;;11.80;99.90;;;;;;5133087;27;20339;-29
2022/09/25 08:00:52;;;;;;;5.20;2.50;;;12.10;99.90;;;;;;5133784;27;20438;-31
2022/09/25 08:03:18;;;;;;;8.48;3.08;;;12.30;99.90;;;;;;5133756;27;20027;-31
2022/09/25 08:05:43;;;;;;;6.35;2.80;;;12.60;99.90;;;;;;5134394;27;20054;-30
2022/09/25 08:08:09;;;;;;;6.00;1.98;;;12.90;99.90;;;;;;5134674;27;20039;-31
2022/09/25 08:10:35;;;;;;;7.25;2.20;;;13.20;99.90;;;;;;5134463;27;20121;-31
2022/09/25 08:13:00;;;;;;;3.30;1.70;;;13.80;99.90;;;;;;5134540;27;20400;-29
2022/09/25 08:15:26;;;;;;;4.93;1.80;;;14.30;99.90;;;;;;5134144;27;20035;-31
2022/09/25 08:17:52;;;;;;;5.57;1.85;;;14.90;99.90;;;;;;5135484;27;20361;-31
2022/09/25 08:20:18;;;;;;;3.63;1.75;;;15.40;99.90;;;;;;5134482;27;20091;-31
2022/09/25 08:22:44;;;;;;;2.80;1.48;;;15.70;99.90;;;;;;5134349;27;20057;-30
2022/09/25 08:25:11;;;;;;;5.10;1.30;;;16.10;99.90;;;;;;5133889;27;20489;-30
2022/09/25 08:27:39;;;;;;;6.57;1.70;;;16.40;99.90;;;;;;5134029;27;20039;-31
2022/09/25 08:30:10;;;;;;;4.65;1.67;;;16.70;99.90;;;;;;5116529;27;20043;-31
2022/09/25 08:32:36;;;;;;;4.65;1.60;;;17.00;99.90;;;;;;5134017;27;20050;-31
2022/09/25 08:35:03;;;;;;;4.50;1.83;;;17.40;99.90;;;;;;5134178;27;20043;-31
2022/09/25 08:37:30;;;;;;;2.58;1.20;;;17.60;99.90;;;;;;5134008;27;20035;-31
2022/09/25 08:40:00;;;;;;;4.85;1.48;;;17.70;99.90;;;;;;5134121;27;20502;-31
2022/09/25 08:42:33;;;;;;;5.72;1.20;;;17.80;99.90;;;;;;5133927;27;20043;-31
2022/09/25 08:50:40;;;;;;;7.47;1.15;;;18.40;99.90;;;;;;5135199;27;20415;-31
2022/09/25 08:53:11;;;;;;;2.78;1.08;;;18.60;99.90;;;;;;5133395;27;20035;-31
2022/09/25 08:58:31;;;;;;;3.13;1.23;;;19.20;99.90;;;;;;5137525;27;20035;-33
2022/09/25 09:01:03;;;;;;;3.63;1.30;;;19.30;99.90;;;;;;5133173;27;20035;-30
2022/09/25 09:03:31;;;;;;;4.68;1.15;;;19.50;99.90;;;;;;5131644;27;20572;-33
2022/09/25 09:06:04;;;;;;;2.28;1.25;;;19.60;99.90;;;;;;5126047;27;20196;-32
2022/09/25 09:08:33;;;;;;;2.53;1.05;;;19.90;99.90;;;;;;5135952;27;20031;-31
2022/09/25 09:11:22;;;;;;;5.78;1.30;;;20.00;99.90;;;;;;5140898;27;20131;-32
2022/09/25 09:14:02;;;;;;;4.35;1.10;;;20.00;99.90;;;;;;5135422;27;20046;-31
2022/09/25 09:17:09;;;;;;;4.20;1.00;;;20.00;99.90;;;;;;5112423;28;20378;-32
2022/09/25 09:19:37;;;;;;;3.22;1.17;;;20.00;99.90;;;;;;5063445;27;20074;-31
2022/09/25 09:22:08;;;;;;;5.93;1.42;;;20.10;99.90;;;;;;5125441;27;20035;-32
2022/09/25 09:25:20;;;;;;;4.82;1.13;;;20.40;99.90;;;;;;5146239;27;20046;-31
2022/09/25 09:28:16;;;;;;;2.97;1.00;;;20.70;99.90;;;;;;5138404;27;20097;-31
2022/09/25 09:30:57;;;;;;;6.65;1.50;;;20.90;99.90;;;;;;5133141;27;20510;-32
2022/09/25 09:33:46;;;;;;;2.85;1.08;;;20.90;99.90;;;;;;5132330;27;20049;-33
2022/09/25 09:36:46;;;;;;;4.68;1.25;;;20.90;99.90;;;;;;5133691;27;20082;-32
2022/09/25 09:39:27;;;;;;;6.30;1.38;;;21.20;99.90;;;;;;5080852;28;20055;-30
2022/09/25 09:42:00;;;;;;;4.40;1.08;;;21.50;99.90;;;;;;5112187;28;20040;-30
2022/09/25 09:44:32;;;;;;;;;;;21.80;99.90;;;;;;5135161;27;20039;-29
2022/09/25 09:47:38;;;;;;;3.67;1.00;;;21.60;99.90;;;;;;5153647;27;20051;-32
2022/09/25 09:50:16;;;;;;;3.90;1.20;;;21.60;98.60;;;;;;5136458;27;20043;-31
2022/09/25 09:52:44;;;;;;;2.70;0.90;;;21.40;99.90;;;;;;5135512;27;20558;-31
2022/09/25 09:55:38;;;;;;;6.65;1.35;;;21.00;99.90;;;;;;5132771;27;20035;-32
2022/09/25 09:58:14;;;;;;;3.15;0.85;;;20.30;99.90;;;;;;5132518;27;20066;-30
2022/09/25 10:00:40;;;;;;;1.63;0.70;;;19.60;99.90;;;;;;5132752;27;20039;-29
2022/09/25 10:03:23;;;;;;;1.95;0.80;;;19.00;99.90;;;;;;5132217;27;20388;-31
2022/09/25 10:05:53;;;;;;;3.47;1.02;;;18.40;99.90;;;;;;5120563;27;20126;-29
2022/09/25 10:08:19;;;;;;;3.20;0.80;;;18.10;99.90;;;;;;5132229;27;20063;-29
2022/09/25 10:10:49;;;;;;;3.35;1.08;;;17.80;99.90;;;;;;5132205;27;20523;-30
2022/09/25 10:13:25;;;;;;;2.72;1.00;;;18.00;99.90;;;;;;5132091;27;20043;-29
2022/09/25 10:15:51;;;;;;;4.55;0.90;;;18.40;99.90;;;;;;5131751;27;20100;-31
2022/09/25 10:18:20;;;;;;;3.67;0.80;;;18.80;99.90;;;;;;5119970;27;20039;-30
2022/09/25 10:21:11;;;;;;;4.07;0.90;;;19.40;99.90;;;;;;5112278;28;20039;-29
2022/09/25 10:23:57;;;;;;;2.08;0.70;;;19.20;99.90;;;;;;5100104;28;20131;-30
2022/09/25 10:26:39;;;;;;;1.90;0.80;;;18.60;99.90;;;;;;5111123;28;20028;-32
2022/09/25 10:29:06;;;;;;;1.65;0.80;;;18.00;99.90;;;;;;5113743;27;20389;-29
2022/09/25 10:31:36;;;;;;;1.65;0.93;;;17.50;99.90;;;;;;5139464;27;20032;-28
2022/09/25 10:34:21;;;;;;;2.58;1.05;;;16.90;99.90;;;;;;5131554;27;20039;-30
2022/09/25 10:36:52;;;;;;;1.35;0.70;;;16.50;99.90;;;;;;5132123;27;20107;-30
2022/09/25 10:39:32;;;;;;;2.85;0.98;;;16.10;99.90;;;;;;5128756;27;20130;-28
2022/09/25 10:41:59;;;;;;;3.80;1.15;;;15.90;99.90;;;;;;5126004;28;20038;-29
2022/09/25 10:44:32;;;;;;;1.20;0.70;;;15.70;99.90;;;;;;5142379;27;20042;-31
2022/09/25 10:50:13;;;;;;;3.42;0.93;;;15.50;99.90;;;;;;5133280;27;20424;-29
2022/09/25 10:52:49;;;;;;;3.55;1.38;;;15.50;99.90;;;;;;5131700;28;20047;-31
2022/09/25 10:55:24;;;;;;;1.77;0.82;;;15.70;99.90;;;;;;5129148;28;20122;-31
2022/09/25 10:58:08;;;;;;;1.83;0.80;;;15.90;99.90;;;;;;5111727;28;20048;-31
2022/09/25 11:00:52;;;;;;;1.77;0.80;;;16.50;99.90;;;;;;5132093;28;20156;-30
2022/09/25 11:03:33;;;;;;;3.30;0.68;;;17.70;99.90;;;;;;5115112;28;20557;-29
2022/09/25 11:06:07;;;;;;;0.80;0.60;;;18.80;99.90;;;;;;5132551;28;20074;-30
2022/09/25 11:08:36;;;;;;;1.88;0.80;;;19.70;99.90;;;;;;5133122;28;20043;-28
2022/09/25 11:11:04;;;;;;;3.65;0.90;;;20.10;99.90;;;;;;5116750;27;20104;-30
2022/09/25 11:13:46;;;;;;;3.10;0.90;;;20.00;99.90;;;;;;5136479;27;20520;-29
2022/09/25 11:16:12;;;;;;;3.47;1.25;;;19.80;99.90;;;;;;5135538;27;20046;-29
2022/09/25 11:19:09;;;;;;;1.65;0.65;;;19.80;99.90;;;;;;5135316;27;20109;-29
2022/09/25 11:22:12;;;;;;;2.15;0.65;;;19.60;99.90;;;;;;5134105;27;20130;-31
2022/09/25 11:25:17;;;;;;;2.23;0.63;;;19.40;99.90;;;;;;5134121;27;20043;-30
2022/09/25 11:28:08;;;;;;;1.85;0.60;;;19.30;99.90;;;;;;5135809;27;20099;-31
2022/09/25 11:30:43;;;;;;;1.55;0.77;;;19.30;99.90;;;;;;5134136;27;20118;-31
2022/09/25 11:33:43;;;;;;;1.70;0.82;;;19.80;99.90;;;;;;5137000;27;20077;-30
2022/09/25 11:36:24;;;;;;;2.00;0.63;;;20.30;99.90;;;;;;5139004;27;20051;-31
2022/09/25 11:41:58;;;;;;;3.05;0.73;;;20.20;95.90;;;;;;5135989;27;20128;-32
2022/09/25 11:44:45;;;;;;;1.60;0.60;;;20.10;94.50;;;;;;5137776;27;20042;-31
2022/09/25 11:47:32;;;;;;;1.48;0.77;;;20.10;99.90;;;;;;5134725;27;20039;-31
2022/09/25 11:50:01;;;;;;;2.35;0.70;;;20.10;99.90;;;;;;5134747;27;20035;-30
2022/09/25 11:52:50;;;;;;;1.38;0.57;;;20.10;99.90;;;;;;5134611;27;20046;-29
2022/09/25 11:55:50;;;;;;;1.90;0.73;;;20.10;94.70;;;;;;5130224;27;20036;-30
2022/09/25 11:58:19;;;;;;;1.75;0.70;;;20.00;99.90;;;;;;5120805;27;20059;-30
2022/09/25 12:00:51;;;;;;;2.83;0.75;;;19.80;99.90;;;;;;5134708;27;20380;-29
2022/09/25 12:03:51;;;;;;;4.28;0.70;;;19.70;99.90;;;;;;5134118;27;20042;-32
2022/09/25 12:06:47;;;;;;;1.83;0.63;;;19.60;99.90;;;;;;5107940;27;20122;-31
2022/09/25 12:09:32;;;;;;;2.13;0.98;;;19.50;99.90;;;;;;5130940;27;20035;-30
2022/09/25 12:12:23;;;;;;;2.25;0.80;;;19.30;99.90;;;;;;5138963;27;20039;-30
2022/09/25 12:14:49;;;;;;;2.58;0.68;;;19.10;99.90;;;;;;5131446;27;20041;-30
2022/09/25 12:17:34;;;;;;;2.90;0.60;;;19.00;99.90;;;;;;5133229;27;20043;-32
2022/09/25 12:20:24;;;;;;;4.05;0.75;;;18.90;99.90;;;;;;5125977;27;20169;-34
2022/09/25 12:23:09;;;;;;;2.30;0.68;;;18.80;99.90;;;;;;5129590;27;20512;-33
2022/09/25 12:26:05;;;;;;;2.28;0.60;;;18.80;99.90;;;;;;5130393;27;20070;-34
2022/09/25 12:28:46;;;;;;;4.90;0.90;;;18.40;99.90;;;;;;5133376;27;20525;-32
2022/09/25 12:31:38;;;;;;;3.05;1.02;;;18.20;99.90;;;;;;5132434;27;20092;-33
2022/09/25 12:34:18;;;;;;;2.40;0.57;;;18.20;99.90;;;;;;5109091;27;20484;-33
2022/09/25 12:36:53;;;;;;;1.88;0.70;;;18.20;99.90;;;;;;5132595;27;20039;-32
2022/09/25 12:39:31;;;;;;;2.50;0.80;;;18.10;99.90;;;;;;5133508;27;20314;-33
2022/09/25 12:42:06;;;;;;;1.55;0.63;;;18.20;99.90;;;;;;5128349;27;20126;-36
2022/09/25 12:44:49;;;;;;;6.20;1.30;;;18.20;99.90;;;;;;5127248;27;20046;-36
2022/09/25 12:47:32;;;;;;;2.83;0.82;;;18.20;99.90;;;;;;5130779;27;20551;-32
2022/09/25 12:50:18;;;;;;;2.55;0.70;;;18.30;99.90;;;;;;5125307;27;20099;-32
2022/09/25 12:52:51;;;;;;;1.77;0.63;;;18.20;99.90;;;;;;5127720;27;20511;-33
2022/09/25 12:55:22;;;;;;;;;;;17.90;99.90;;;;;;5124806;27;20084;-33
2022/09/25 12:57:53;;;;;;;0.80;0.57;;;17.80;99.90;;;;;;5110062;27;19958;-34
2022/09/25 13:00:24;;;;;;;3.13;0.80;;;17.60;99.90;;;;;;5128848;27;20049;-34
2022/09/25 13:03:09;;;;;;;2.17;0.80;;;17.50;99.90;;;;;;5124459;27;20366;-33
2022/09/25 13:05:55;;;;;;;3.30;0.90;;;17.40;99.90;;;;;;5144279;27;20035;-34
2022/09/25 13:08:34;;;;;;;4.65;0.80;;;17.30;99.90;;;;;;5121945;27;20042;-32
2022/09/25 13:11:14;;;;;;;1.88;1.00;;;17.40;99.90;;;;;;5129084;27;20035;-34
2022/09/25 13:13:47;;;;;;;2.40;0.68;;;17.90;99.90;;;;;;5126283;27;20035;-33
2022/09/25 13:16:14;;;;;;;3.07;0.83;;;18.20;99.90;;;;;;5127577;27;20082;-33
2022/09/25 13:19:06;;;;;;;2.88;0.93;;;19.00;99.90;;;;;;5121619;27;20047;-32
2022/09/25 13:21:35;;;;;;;1.27;0.50;;;20.80;99.90;;;;;;5132076;27;20392;-33
2022/09/25 13:24:08;;;;;;;1.55;0.60;;;22.00;99.40;;;;;;5125434;27;20134;-33
2022/09/25 13:26:52;;;;;;;2.22;0.70;;;23.30;92.90;;;;;;5129693;27;20035;-34
2022/09/25 13:29:28;;;;;;;1.67;0.60;;;24.00;73.80;;;;;;5134686;27;20047;-35
2022/09/25 13:32:17;;;;;;;2.25;0.90;;;25.10;67.20;;;;;;5135691;27;20039;-36
2022/09/25 13:34:45;;;;;;;2.28;0.65;;;25.70;59.80;;;;;;5114341;27;20496;-34
2022/09/25 13:37:14;;;;;;;1.88;0.60;;;26.60;56.60;;;;;;5125209;27;20510;-34
2022/09/25 13:42:38;;;;;;;1.58;0.70;;;25.90;51.10;;;;;;5131554;27;20095;-34
2022/09/25 13:45:16;;;;;;;;;;;24.60;53.40;;;;;;5129411;27;20050;-33
2022/09/25 13:47:54;;;;;;;2.15;0.57;;;23.30;55.80;;;;;;5130076;27;19915;-33
2022/09/25 13:50:26;;;;;;;2.50;0.70;;;22.80;63.00;;;;;;5132886;27;20031;-37